Time;durP1;ratioP1;P1;durP2;ratioP2;P2;SDS_P1;SDS_P2;PMS_P1;PMS_P2;Temp;Humidity;BMP_temperature;BMP_pressure;BME280_temperature;BME280_humidity;BME280_pressure;Samples;Min_cycle;Max_cycle;Signal;HPM_P1;HPM_P2
2023/05/30 00:00:47;;;;;;;5.72;4.00;;;14.80;56.40;;;;;;5030920;28;20421;-72
2023/05/30 00:03:12;;;;;;;5.07;4.20;;;14.80;56.80;;;;;;5032656;28;20060;-72
2023/05/30 00:05:38;;;;;;;5.95;3.88;;;14.80;57.00;;;;;;5032321;28;20045;-72
2023/05/30 00:08:04;;;;;;;5.95;3.85;;;14.70;57.10;;;;;;5032251;28;20030;-73
2023/05/30 00:10:29;;;;;;;4.35;3.45;;;14.70;57.20;;;;;;5032409;28;20497;-72
2023/05/30 00:12:55;;;;;;;5.88;3.90;;;14.70;57.50;;;;;;5032401;28;20057;-73
2023/05/30 00:15:20;;;;;;;6.05;4.15;;;14.60;57.40;;;;;;5032500;28;20032;-72
2023/05/30 00:17:47;;;;;;;8.10;4.45;;;14.60;57.30;;;;;;5032257;28;20076;-72
2023/05/30 00:20:13;;;;;;;6.50;3.88;;;14.60;57.40;;;;;;5032376;28;20080;-72
2023/05/30 00:22:41;;;;;;;6.18;4.40;;;14.50;57.60;;;;;;5032441;28;20029;-73
2023/05/30 00:25:07;;;;;;;5.07;4.00;;;14.50;57.90;;;;;;5032384;28;20091;-72
2023/05/30 00:27:33;;;;;;;8.10;4.03;;;14.50;57.90;;;;;;5032451;28;20068;-72
2023/05/30 00:29:58;;;;;;;6.20;4.35;;;14.40;57.70;;;;;;5035255;28;20072;-72
2023/05/30 00:32:24;;;;;;;6.78;3.92;;;14.40;57.80;;;;;;5036011;28;20025;-72
2023/05/30 00:34:49;;;;;;;8.13;3.97;;;14.40;58.00;;;;;;5036192;28;20489;-72
2023/05/30 00:37:15;;;;;;;6.65;4.00;;;14.30;58.00;;;;;;5035992;28;20431;-72
2023/05/30 00:39:41;;;;;;;5.10;3.72;;;14.40;58.10;;;;;;5035889;28;20028;-72
2023/05/30 00:42:07;;;;;;;6.70;4.10;;;14.30;58.40;;;;;;5035866;28;20029;-72
2023/05/30 00:44:32;;;;;;;4.65;3.80;;;14.20;58.60;;;;;;5035871;28;20028;-72
2023/05/30 00:46:58;;;;;;;5.05;3.90;;;14.20;58.80;;;;;;5035856;28;20124;-72
2023/05/30 00:49:26;;;;;;;5.05;4.10;;;14.20;58.90;;;;;;5035664;28;20053;-72
2023/05/30 00:51:52;;;;;;;7.00;3.78;;;14.20;58.80;;;;;;5035798;28;20025;-72
2023/05/30 00:54:18;;;;;;;7.13;3.75;;;14.20;59.40;;;;;;5035808;28;20029;-72
2023/05/30 00:56:44;;;;;;;7.10;4.15;;;14.20;59.00;;;;;;5035458;28;20370;-72
2023/05/30 00:59:10;;;;;;;6.40;4.18;;;14.20;58.70;;;;;;5035592;28;20079;-72
2023/05/30 01:01:37;;;;;;;5.85;3.88;;;14.20;58.70;;;;;;5035514;28;20479;-72
2023/05/30 01:04:02;;;;;;;5.05;3.85;;;14.20;58.90;;;;;;5035334;28;20025;-72
2023/05/30 01:06:30;;;;;;;6.35;4.18;;;14.20;58.90;;;;;;5035284;28;20025;-72
2023/05/30 01:08:58;;;;;;;7.78;4.28;;;14.10;58.70;;;;;;5035194;28;20079;-72
2023/05/30 01:12:01;;;;;;;4.43;3.88;;;14.00;58.90;;;;;;5035214;28;20027;-72
2023/05/30 01:14:50;;;;;;;7.07;4.25;;;14.00;59.50;;;;;;5035329;28;20026;-72
2023/05/30 01:17:24;;;;;;;6.90;4.15;;;14.00;59.70;;;;;;5035032;28;20155;-72
2023/05/30 01:20:07;;;;;;;5.93;4.03;;;13.90;59.60;;;;;;5035355;28;20017;-72
2023/05/30 01:22:44;;;;;;;5.60;4.43;;;13.90;59.70;;;;;;5034933;28;20030;-72
2023/05/30 01:25:26;;;;;;;6.45;4.05;;;13.90;59.90;;;;;;5034867;28;20029;-72
2023/05/30 01:28:12;;;;;;;6.72;4.00;;;13.90;59.90;;;;;;5035031;28;20028;-72
2023/05/30 01:30:48;;;;;;;6.07;3.55;;;13.90;59.80;;;;;;5034602;28;20489;-72
2023/05/30 01:33:16;;;;;;;8.45;4.28;;;13.90;59.60;;;;;;5034956;28;20030;-72
2023/05/30 01:35:44;;;;;;;4.68;4.10;;;13.90;59.60;;;;;;5034662;28;20047;-72
2023/05/30 01:38:10;;;;;;;6.07;3.95;;;13.70;59.80;;;;;;5034647;28;20033;-72
2023/05/30 01:40:36;;;;;;;9.25;4.05;;;13.60;60.10;;;;;;5034601;28;20131;-73
2023/05/30 01:43:14;;;;;;;6.97;3.75;;;13.60;60.40;;;;;;5035118;28;20029;-72
2023/05/30 01:45:58;;;;;;;5.13;3.88;;;13.50;60.80;;;;;;5034578;28;20021;-72
2023/05/30 01:48:42;;;;;;;5.05;3.85;;;13.50;61.20;;;;;;5033368;28;20098;-72
2023/05/30 01:51:12;;;;;;;5.25;3.88;;;13.60;61.10;;;;;;5034611;28;20033;-73
2023/05/30 01:53:50;;;;;;;6.82;4.13;;;13.60;60.90;;;;;;5034232;28;20524;-73
2023/05/30 01:56:17;;;;;;;5.40;3.92;;;13.60;61.00;;;;;;5034256;28;20425;-72
2023/05/30 01:58:47;;;;;;;4.53;3.85;;;13.60;61.00;;;;;;5034073;28;20041;-72
2023/05/30 02:01:14;;;;;;;5.25;3.90;;;13.50;61.40;;;;;;5033971;28;20051;-72
2023/05/30 02:03:40;;;;;;;5.45;3.90;;;13.50;61.60;;;;;;5034450;28;20108;-72
2023/05/30 02:06:06;;;;;;;5.03;4.28;;;13.40;61.60;;;;;;5034033;28;20155;-72
2023/05/30 02:08:31;;;;;;;6.03;4.10;;;13.40;62.00;;;;;;5033996;28;20033;-72
2023/05/30 02:10:57;;;;;;;4.85;3.85;;;13.30;62.30;;;;;;5032930;28;20389;-72
2023/05/30 02:13:22;;;;;;;7.68;4.68;;;13.20;62.30;;;;;;5033940;28;20508;-72
2023/05/30 02:15:48;;;;;;;4.60;3.88;;;13.20;62.50;;;;;;5033815;28;20033;-72
2023/05/30 02:18:13;;;;;;;4.63;3.92;;;13.20;62.50;;;;;;5033887;28;20033;-72
2023/05/30 02:20:39;;;;;;;5.35;3.78;;;13.20;63.40;;;;;;5033985;28;20438;-72
2023/05/30 02:23:04;;;;;;;5.63;3.90;;;13.30;62.60;;;;;;5033923;28;20498;-72
2023/05/30 02:25:30;;;;;;;6.95;3.88;;;13.30;62.50;;;;;;5034014;28;20079;-73
2023/05/30 02:27:55;;;;;;;6.47;4.35;;;13.30;62.40;;;;;;5033638;28;20021;-73
2023/05/30 02:30:21;;;;;;;5.28;4.32;;;13.30;62.60;;;;;;5033499;28;20026;-72
2023/05/30 02:32:47;;;;;;;5.32;4.13;;;13.30;62.60;;;;;;5033791;28;20029;-72
2023/05/30 02:35:13;;;;;;;5.70;4.22;;;13.40;62.40;;;;;;5033528;28;20099;-72
2023/05/30 02:37:39;;;;;;;6.95;4.57;;;13.40;63.10;;;;;;5033695;28;20041;-72
2023/05/30 02:40:10;;;;;;;6.03;4.50;;;13.30;62.00;;;;;;5033674;28;20538;-72
2023/05/30 02:42:36;;;;;;;6.43;4.10;;;13.20;62.40;;;;;;5033671;28;20036;-72
2023/05/30 02:45:03;;;;;;;5.97;4.50;;;13.10;62.60;;;;;;5033640;28;20030;-73
2023/05/30 02:47:28;;;;;;;5.55;3.75;;;13.10;62.50;;;;;;5033480;28;20418;-72
2023/05/30 02:49:54;;;;;;;4.68;3.95;;;13.00;62.70;;;;;;5033295;28;20080;-72
2023/05/30 02:52:22;;;;;;;6.15;3.85;;;13.00;62.90;;;;;;5033000;28;20061;-72
2023/05/30 02:54:48;;;;;;;5.22;3.85;;;13.00;63.10;;;;;;5033472;28;20055;-72
2023/05/30 02:57:15;;;;;;;5.90;4.70;;;13.00;63.20;;;;;;5033367;28;20037;-72
2023/05/30 02:59:40;;;;;;;7.65;4.32;;;12.90;64.00;;;;;;5033322;28;20376;-72
2023/05/30 03:02:06;;;;;;;5.40;4.18;;;12.90;63.80;;;;;;5033223;28;20124;-73
2023/05/30 03:04:32;;;;;;;5.25;4.18;;;12.90;64.80;;;;;;5033108;28;20036;-72
2023/05/30 03:06:59;;;;;;;8.35;4.05;;;12.80;63.80;;;;;;5033217;28;20044;-73
2023/05/30 03:09:24;;;;;;;5.60;4.22;;;12.80;64.20;;;;;;5033248;28;20056;-72
2023/05/30 03:11:50;;;;;;;5.97;4.40;;;12.80;64.30;;;;;;5031897;28;20478;-72
2023/05/30 03:14:15;;;;;;;5.07;3.80;;;12.80;64.40;;;;;;5033063;28;20037;-73
2023/05/30 03:16:41;;;;;;;9.55;4.07;;;12.80;64.30;;;;;;5031836;28;20437;-72
2023/05/30 03:19:07;;;;;;;5.65;4.20;;;12.80;64.30;;;;;;5032936;28;20390;-72
2023/05/30 03:21:34;;;;;;;5.97;3.88;;;12.90;64.50;;;;;;5033057;28;20480;-72
2023/05/30 03:23:59;;;;;;;5.18;3.75;;;12.80;64.20;;;;;;5032866;28;20075;-72
2023/05/30 03:26:25;;;;;;;7.05;4.25;;;12.80;64.10;;;;;;5032739;28;20017;-73
2023/05/30 03:28:51;;;;;;;6.22;4.28;;;12.80;64.00;;;;;;5032966;28;21110;-72
2023/05/30 03:31:16;;;;;;;7.63;4.15;;;12.90;64.10;;;;;;5031118;28;20034;-72
2023/05/30 03:33:42;;;;;;;5.05;3.65;;;12.80;64.00;;;;;;5032741;28;20036;-72
2023/05/30 03:36:10;;;;;;;8.60;4.85;;;12.80;63.90;;;;;;5032697;28;20033;-72
2023/05/30 03:38:36;;;;;;;7.05;3.90;;;12.70;64.70;;;;;;5032811;28;20469;-72
2023/05/30 03:41:02;;;;;;;9.07;4.95;;;12.70;64.60;;;;;;5032796;28;20202;-72
2023/05/30 03:43:28;;;;;;;5.15;4.50;;;12.80;64.30;;;;;;5031357;28;20080;-72
2023/05/30 03:45:54;;;;;;;5.95;4.40;;;12.70;64.50;;;;;;5032657;28;20428;-72
2023/05/30 03:48:19;;;;;;;6.35;4.00;;;12.70;64.40;;;;;;5032282;28;20116;-72
2023/05/30 03:50:45;;;;;;;6.72;4.53;;;12.70;64.50;;;;;;5032478;28;20031;-73
2023/05/30 03:53:10;;;;;;;6.32;4.40;;;12.70;64.50;;;;;;5032479;28;20107;-72
2023/05/30 03:55:36;;;;;;;6.43;4.20;;;12.70;64.50;;;;;;5032353;28;20060;-73
2023/05/30 03:58:01;;;;;;;8.23;4.78;;;12.70;64.40;;;;;;5032376;28;20041;-72
2023/05/30 04:00:27;;;;;;;9.38;4.60;;;12.70;64.70;;;;;;5031141;28;20030;-72
2023/05/30 04:02:53;;;;;;;5.05;3.83;;;12.70;64.60;;;;;;5032489;28;20041;-72
2023/05/30 04:05:19;;;;;;;7.75;4.70;;;12.70;64.50;;;;;;5036133;28;20024;-72
2023/05/30 04:07:45;;;;;;;7.05;4.30;;;12.80;64.50;;;;;;5036548;28;20033;-72
2023/05/30 04:10:10;;;;;;;5.63;3.97;;;12.80;64.30;;;;;;5036444;28;20018;-72
2023/05/30 04:12:37;;;;;;;6.03;4.07;;;12.80;64.30;;;;;;5036351;28;20030;-72
2023/05/30 04:15:02;;;;;;;7.85;4.60;;;12.80;64.20;;;;;;5036410;28;20045;-72
2023/05/30 04:17:30;;;;;;;6.15;4.15;;;12.80;64.20;;;;;;5036232;28;20084;-72
2023/05/30 04:19:56;;;;;;;6.80;4.85;;;12.90;64.20;;;;;;5036101;28;20025;-72
2023/05/30 04:22:21;;;;;;;5.75;4.55;;;13.00;64.00;;;;;;5036268;28;20029;-72
2023/05/30 04:24:47;;;;;;;4.90;3.78;;;13.00;63.80;;;;;;5036206;28;20029;-73
2023/05/30 04:27:13;;;;;;;6.78;4.15;;;13.00;63.70;;;;;;5036025;28;20017;-72
2023/05/30 04:29:40;;;;;;;7.95;4.30;;;13.00;63.80;;;;;;5035015;28;20041;-72
2023/05/30 04:32:06;;;;;;;7.53;4.28;;;13.10;63.90;;;;;;5036243;28;20045;-73
2023/05/30 04:34:32;;;;;;;6.10;4.50;;;13.20;63.70;;;;;;5036055;28;20385;-72
2023/05/30 04:36:57;;;;;;;7.20;4.63;;;13.20;63.50;;;;;;5035951;28;20030;-72
2023/05/30 04:39:23;;;;;;;9.00;4.88;;;13.20;63.40;;;;;;5034587;28;20071;-72
2023/05/30 04:41:54;;;;;;;8.07;4.47;;;13.30;63.30;;;;;;5034536;28;20447;-73
2023/05/30 04:44:20;;;;;;;5.28;4.10;;;13.40;63.20;;;;;;5035893;28;20466;-72
2023/05/30 04:46:46;;;;;;;6.07;4.68;;;13.50;63.00;;;;;;5034521;28;20108;-72
2023/05/30 04:49:15;;;;;;;8.07;4.40;;;13.60;62.60;;;;;;5034301;28;20049;-72
2023/05/30 04:51:41;;;;;;;5.57;4.35;;;13.60;62.20;;;;;;5034425;28;20064;-72
2023/05/30 04:54:07;;;;;;;8.05;4.25;;;13.70;61.40;;;;;;5035522;28;20059;-72
2023/05/30 04:56:33;;;;;;;7.93;4.15;;;13.80;61.30;;;;;;5035462;28;20105;-72
2023/05/30 04:58:58;;;;;;;5.93;4.25;;;13.90;61.20;;;;;;5035527;28;20542;-72
2023/05/30 05:01:24;;;;;;;8.68;4.40;;;14.00;61.00;;;;;;5035328;28;20025;-72
2023/05/30 05:03:50;;;;;;;7.68;5.03;;;14.00;60.50;;;;;;5035290;28;20056;-72
2023/05/30 05:06:16;;;;;;;8.68;4.50;;;14.10;60.20;;;;;;5035209;28;20057;-72
2023/05/30 05:08:42;;;;;;;10.55;4.78;;;14.20;60.00;;;;;;5035300;28;20049;-72
2023/05/30 05:11:08;;;;;;;8.57;4.60;;;14.20;59.70;;;;;;5035200;28;20022;-73
2023/05/30 05:13:34;;;;;;;5.85;4.30;;;14.20;59.60;;;;;;5035297;28;20022;-72
2023/05/30 05:16:04;;;;;;;6.55;4.10;;;14.30;59.70;;;;;;5034640;28;20021;-72
2023/05/30 05:18:29;;;;;;;10.35;4.97;;;14.40;59.50;;;;;;5034981;28;20555;-72
2023/05/30 05:20:55;;;;;;;6.82;4.43;;;14.50;59.10;;;;;;5035146;28;20030;-72
2023/05/30 05:23:22;;;;;;;8.40;4.85;;;14.50;58.90;;;;;;5035066;28;20481;-72
2023/05/30 05:25:47;;;;;;;6.65;5.30;;;14.50;59.10;;;;;;5033608;28;20025;-73
2023/05/30 05:28:13;;;;;;;7.50;5.35;;;14.50;59.40;;;;;;5034684;28;20392;-73
2023/05/30 05:30:39;;;;;;;8.48;6.22;;;14.50;59.60;;;;;;5034503;28;20067;-72
2023/05/30 05:33:04;;;;;;;8.23;5.10;;;14.40;60.10;;;;;;5034075;28;20504;-72
2023/05/30 05:35:30;;;;;;;8.20;5.93;;;14.50;60.20;;;;;;5034788;28;20017;-73
2023/05/30 05:37:55;;;;;;;6.43;4.97;;;14.40;59.90;;;;;;5034251;28;20116;-72
2023/05/30 05:40:22;;;;;;;9.35;4.70;;;14.60;59.90;;;;;;5034712;28;20458;-72
2023/05/30 05:42:47;;;;;;;6.75;5.28;;;14.60;59.70;;;;;;5034282;28;20435;-73
2023/05/30 05:45:13;;;;;;;9.18;5.57;;;14.70;59.40;;;;;;5034541;28;20054;-72
2023/05/30 05:47:38;;;;;;;12.13;5.85;;;14.90;58.80;;;;;;5034413;28;20063;-72
2023/05/30 05:50:04;;;;;;;10.15;6.03;;;14.80;58.40;;;;;;5034590;28;20033;-72
2023/05/30 05:52:30;;;;;;;9.30;5.50;;;14.70;58.70;;;;;;5034145;28;20061;-73
2023/05/30 05:54:55;;;;;;;9.77;5.78;;;14.60;59.30;;;;;;5034216;28;20072;-72
2023/05/30 05:57:21;;;;;;;8.40;6.30;;;14.70;59.40;;;;;;5034036;28;20049;-73
2023/05/30 05:59:47;;;;;;;11.05;6.47;;;14.90;59.40;;;;;;5034187;28;20445;-73
2023/05/30 06:02:12;;;;;;;9.68;6.30;;;14.90;59.20;;;;;;5031685;28;20033;-72
2023/05/30 06:04:38;;;;;;;10.68;5.95;;;15.00;58.90;;;;;;5032718;28;20674;-72
2023/05/30 06:07:04;;;;;;;9.77;5.85;;;14.80;59.30;;;;;;5034609;28;20026;-72
2023/05/30 06:09:31;;;;;;;9.13;6.47;;;14.90;59.40;;;;;;5034375;28;20020;-72
2023/05/30 06:12:00;;;;;;;13.13;6.20;;;14.80;60.40;;;;;;5034053;28;20390;-72
2023/05/30 06:14:26;;;;;;;10.57;6.13;;;14.90;59.90;;;;;;5034182;28;20037;-73
2023/05/30 06:16:52;;;;;;;8.52;5.47;;;15.00;59.50;;;;;;5033835;28;20120;-73
2023/05/30 06:19:17;;;;;;;12.93;6.75;;;15.20;58.70;;;;;;5033564;28;20025;-72
2023/05/30 06:21:43;;;;;;;9.05;6.70;;;15.20;58.80;;;;;;5033753;28;20021;-71
2023/05/30 06:24:08;;;;;;;7.78;5.75;;;15.20;59.00;;;;;;5033422;28;20057;-71
2023/05/30 06:26:34;;;;;;;13.95;6.82;;;15.30;59.00;;;;;;5032442;28;20032;-72
2023/05/30 06:29:00;;;;;;;8.73;5.78;;;15.20;59.00;;;;;;5033918;28;20026;-73
2023/05/30 06:31:25;;;;;;;11.98;6.88;;;15.20;59.60;;;;;;5034546;28;20029;-72
2023/05/30 06:33:51;;;;;;;74.53;13.25;;;15.40;59.20;;;;;;5033573;28;20071;-72
2023/05/30 06:36:16;;;;;;;17.60;6.95;;;15.70;69.40;;;;;;5033050;28;20113;-71
2023/05/30 06:38:42;;;;;;;11.98;6.18;;;16.10;60.70;;;;;;5033261;28;20115;-71
2023/05/30 06:41:07;;;;;;;8.20;6.03;;;16.50;60.30;;;;;;5033427;28;20436;-70
2023/05/30 06:43:33;;;;;;;11.02;5.50;;;16.70;55.70;;;;;;5033394;28;20470;-70
2023/05/30 06:45:59;;;;;;;9.73;5.00;;;17.00;56.90;;;;;;5033269;28;20025;-73
2023/05/30 06:48:24;;;;;;;9.15;5.60;;;17.30;56.80;;;;;;5033131;28;20379;-71
2023/05/30 06:50:50;;;;;;;9.30;5.47;;;17.60;54.70;;;;;;5033074;28;20459;-72
2023/05/30 06:53:16;;;;;;;11.32;5.45;;;17.80;52.80;;;;;;5032998;28;20076;-72
2023/05/30 06:55:42;;;;;;;13.18;5.63;;;17.60;53.40;;;;;;5032890;28;20022;-72
2023/05/30 06:58:07;;;;;;;6.18;4.68;;;17.80;53.10;;;;;;5031689;28;20033;-71
2023/05/30 07:00:33;;;;;;;9.25;5.03;;;17.90;52.60;;;;;;5032896;28;20120;-72
2023/05/30 07:03:00;;;;;;;8.38;4.80;;;18.10;52.20;;;;;;5032703;28;20041;-72
2023/05/30 07:05:26;;;;;;;14.15;5.63;;;18.30;51.50;;;;;;5032745;28;20452;-72
2023/05/30 07:07:51;;;;;;;10.75;4.90;;;18.50;51.00;;;;;;5032933;28;20025;-71
2023/05/30 07:10:17;;;;;;;9.48;4.60;;;18.50;50.50;;;;;;5032860;28;20025;-71
2023/05/30 07:12:42;;;;;;;10.00;5.93;;;18.60;49.90;;;;;;5032808;28;20111;-72
2023/05/30 07:15:08;;;;;;;11.07;6.10;;;18.50;50.20;;;;;;5032742;28;20064;-72
2023/05/30 07:17:34;;;;;;;8.65;5.35;;;18.20;51.20;;;;;;5031250;28;20041;-71
2023/05/30 07:20:00;;;;;;;9.50;5.13;;;17.90;52.00;;;;;;5032773;28;20049;-71
2023/05/30 07:22:26;;;;;;;8.18;4.65;;;18.00;52.00;;;;;;5032502;28;20033;-71
2023/05/30 07:24:51;;;;;;;9.23;5.60;;;18.00;51.60;;;;;;5032712;28;20407;-72
2023/05/30 07:27:17;;;;;;;10.77;5.03;;;18.10;52.10;;;;;;5032529;28;20416;-72
2023/05/30 07:29:43;;;;;;;10.48;5.32;;;18.00;51.60;;;;;;5032491;28;20021;-71
2023/05/30 07:32:10;;;;;;;8.05;4.55;;;18.10;51.20;;;;;;5032346;28;20030;-72
2023/05/30 07:34:36;;;;;;;10.50;4.80;;;18.40;50.40;;;;;;5032457;28;20513;-73
2023/05/30 07:37:01;;;;;;;10.90;5.43;;;18.50;49.70;;;;;;5032204;28;20113;-72
2023/05/30 07:39:27;;;;;;;9.05;5.45;;;18.60;50.00;;;;;;5032356;28;20115;-71
2023/05/30 07:41:52;;;;;;;10.13;5.30;;;18.70;49.60;;;;;;5032197;28;20470;-72
2023/05/30 07:44:18;;;;;;;9.60;5.88;;;18.40;50.10;;;;;;5032108;28;20028;-72
2023/05/30 07:46:43;;;;;;;10.38;5.63;;;18.20;50.70;;;;;;5032293;28;20025;-72
2023/05/30 07:49:09;;;;;;;13.95;6.50;;;18.00;51.50;;;;;;5032050;28;20486;-72
2023/05/30 07:51:36;;;;;;;10.43;5.82;;;18.00;52.00;;;;;;5031158;28;20521;-73
2023/05/30 07:54:01;;;;;;;10.77;5.70;;;17.80;52.00;;;;;;5032399;28;20109;-72
2023/05/30 07:56:27;;;;;;;10.98;5.63;;;17.60;52.60;;;;;;5032183;28;20064;-72
2023/05/30 07:58:52;;;;;;;12.88;5.78;;;17.40;53.20;;;;;;5032160;28;20029;-72
2023/05/30 08:01:18;;;;;;;11.27;5.45;;;17.40;53.20;;;;;;5032235;28;20071;-73
2023/05/30 08:03:43;;;;;;;11.63;5.90;;;17.40;53.00;;;;;;5031871;28;20026;-72
2023/05/30 08:06:09;;;;;;;8.65;5.70;;;17.40;53.50;;;;;;5032393;28;20025;-72
2023/05/30 08:08:35;;;;;;;11.13;5.25;;;17.50;53.00;;;;;;5032332;28;20072;-72
2023/05/30 08:11:00;;;;;;;10.05;5.97;;;17.60;52.80;;;;;;5031794;28;20493;-72
2023/05/30 08:13:26;;;;;;;10.73;6.00;;;17.90;52.40;;;;;;5032072;28;20034;-72
2023/05/30 08:15:52;;;;;;;10.23;5.55;;;18.00;51.60;;;;;;5032250;28;20231;-72
2023/05/30 08:18:18;;;;;;;12.52;5.78;;;18.10;51.00;;;;;;5031797;28;20038;-72
2023/05/30 08:20:44;;;;;;;9.63;5.43;;;18.20;50.40;;;;;;5030691;28;20057;-72
2023/05/30 08:23:10;;;;;;;10.48;5.78;;;18.60;50.10;;;;;;5032113;28;20033;-72
2023/05/30 08:25:42;;;;;;;10.20;5.55;;;18.70;49.70;;;;;;5032085;28;20025;-72
2023/05/30 08:28:07;;;;;;;8.32;5.47;;;18.70;48.80;;;;;;5032074;28;20026;-72
2023/05/30 08:30:33;;;;;;;11.50;6.00;;;18.70;49.10;;;;;;5030864;28;20499;-72
2023/05/30 08:32:58;;;;;;;8.88;6.30;;;18.80;48.90;;;;;;5031989;28;20395;-72
2023/05/30 08:35:24;;;;;;;9.30;5.70;;;19.00;48.80;;;;;;5031811;28;20481;-72
2023/05/30 08:37:50;;;;;;;14.23;6.13;;;19.10;48.30;;;;;;5031765;28;20494;-72
2023/05/30 08:40:15;;;;;;;9.05;6.05;;;19.10;49.00;;;;;;5031901;28;20021;-73
2023/05/30 08:42:41;;;;;;;8.45;5.03;;;19.20;48.60;;;;;;5031873;28;20021;-72
2023/05/30 08:45:08;;;;;;;12.25;5.60;;;19.40;48.30;;;;;;5032003;28;20026;-72
2023/05/30 08:47:35;;;;;;;10.25;6.00;;;19.60;47.70;;;;;;5031946;28;20496;-72
2023/05/30 08:50:06;;;;;;;10.63;6.18;;;19.70;47.70;;;;;;5033148;28;20107;-72
2023/05/30 08:52:33;;;;;;;14.02;7.03;;;19.80;48.10;;;;;;5035189;28;20056;-73
2023/05/30 08:55:07;;;;;;;12.68;6.10;;;19.90;47.50;;;;;;5034069;28;20060;-72
2023/05/30 08:57:57;;;;;;;17.13;8.30;;;20.00;47.70;;;;;;5034041;28;20033;-72
2023/05/30 09:00:23;;;;;;;11.45;6.45;;;20.10;47.50;;;;;;4996550;28;20471;-72
2023/05/30 09:02:54;;;;;;;11.57;6.00;;;19.60;48.00;;;;;;5035330;28;20032;-72
2023/05/30 09:05:20;;;;;;;9.73;5.20;;;19.40;49.50;;;;;;5033956;28;20370;-72
2023/05/30 09:07:47;;;;;;;8.57;5.57;;;19.50;48.70;;;;;;5035345;28;20167;-73
2023/05/30 09:10:15;;;;;;;11.95;5.90;;;19.50;48.10;;;;;;5034103;28;20026;-71
2023/05/30 09:12:42;;;;;;;9.32;5.85;;;19.70;48.60;;;;;;5035016;28;20033;-72
2023/05/30 09:15:08;;;;;;;18.77;6.43;;;19.60;47.70;;;;;;5035056;28;20025;-72
2023/05/30 09:17:34;;;;;;;11.38;6.18;;;19.50;48.10;;;;;;5034801;28;20041;-72
2023/05/30 09:20:00;;;;;;;9.20;5.75;;;19.30;48.40;;;;;;5035159;28;20025;-71
2023/05/30 09:22:27;;;;;;;9.48;5.60;;;19.50;48.80;;;;;;5035216;28;20112;-71
2023/05/30 09:25:00;;;;;;;10.82;6.20;;;19.70;48.30;;;;;;5036718;28;20420;-72
2023/05/30 09:27:28;;;;;;;12.15;6.05;;;19.50;49.50;;;;;;5036156;28;20022;-73
2023/05/30 09:29:55;;;;;;;11.63;5.97;;;19.30;48.70;;;;;;5034793;28;20049;-73
2023/05/30 09:32:28;;;;;;;11.13;5.80;;;19.40;48.90;;;;;;5034843;28;20025;-72
2023/05/30 09:34:55;;;;;;;10.70;5.10;;;19.50;49.20;;;;;;5035070;28;20433;-73
2023/05/30 09:37:21;;;;;;;10.05;5.80;;;19.90;48.90;;;;;;5034828;28;20076;-73
2023/05/30 09:40:07;;;;;;;12.13;5.60;;;20.30;47.30;;;;;;5034613;28;20057;-75
2023/05/30 09:42:42;;;;;;;11.85;6.05;;;20.30;46.60;;;;;;5034804;28;20433;-73
2023/05/30 09:45:09;;;;;;;13.57;7.00;;;20.20;46.80;;;;;;5034418;28;20100;-73
2023/05/30 09:47:48;;;;;;;11.65;5.72;;;20.30;46.70;;;;;;5033322;28;20022;-73
2023/05/30 09:50:22;;;;;;;11.30;5.93;;;20.20;47.70;;;;;;5031557;28;20037;-72
2023/05/30 09:52:56;;;;;;;12.30;5.97;;;20.10;47.10;;;;;;5030867;28;20026;-72
2023/05/30 09:55:24;;;;;;;11.27;5.32;;;20.30;47.60;;;;;;5032967;28;20429;-73
2023/05/30 09:57:51;;;;;;;8.35;4.95;;;20.60;48.00;;;;;;5033661;28;20036;-72
2023/05/30 10:00:22;;;;;;;11.27;5.03;;;21.10;47.10;;;;;;5012942;28;20026;-72
2023/05/30 10:02:56;;;;;;;10.35;5.43;;;21.00;44.70;;;;;;5013140;28;20018;-72
2023/05/30 10:05:29;;;;;;;11.85;5.35;;;20.70;45.30;;;;;;5022100;28;20505;-72
2023/05/30 10:07:56;;;;;;;10.43;5.35;;;20.70;46.40;;;;;;5032782;28;20029;-72
2023/05/30 10:10:22;;;;;;;13.98;5.75;;;20.70;46.20;;;;;;5032364;28;20017;-72
2023/05/30 10:12:50;;;;;;;9.95;5.03;;;21.00;44.50;;;;;;5032583;28;20029;-71
2023/05/30 10:15:18;;;;;;;11.43;5.40;;;21.10;44.20;;;;;;5032470;28;20017;-72
2023/05/30 10:17:49;;;;;;;11.80;5.00;;;21.30;43.60;;;;;;5032124;28;20026;-71
2023/05/30 10:20:16;;;;;;;7.80;4.95;;;21.30;43.60;;;;;;5033658;28;20024;-71
2023/05/30 10:22:44;;;;;;;8.88;4.40;;;21.50;43.70;;;;;;5033744;28;20083;-71
2023/05/30 10:25:11;;;;;;;9.18;4.80;;;21.70;43.60;;;;;;5033159;28;20026;-72
2023/05/30 10:27:47;;;;;;;7.80;4.97;;;21.90;43.70;;;;;;5033444;28;20172;-73
2023/05/30 10:30:17;;;;;;;10.60;5.15;;;22.10;43.20;;;;;;5033366;28;20023;-71
2023/05/30 10:32:48;;;;;;;11.18;4.95;;;22.40;43.50;;;;;;5033500;28;20163;-73
2023/05/30 10:35:17;;;;;;;12.43;5.30;;;22.20;41.70;;;;;;5033651;28;20040;-73
2023/05/30 10:37:44;;;;;;;12.10;5.60;;;22.00;41.70;;;;;;5033441;28;20041;-72
2023/05/30 10:40:51;;;;;;;9.98;4.88;;;22.00;41.60;;;;;;5032140;28;20481;-72
2023/05/30 10:43:38;;;;;;;10.93;4.88;;;21.80;42.90;;;;;;5027500;28;20482;-72
2023/05/30 10:46:15;;;;;;;22.90;15.98;;;22.00;42.30;;;;;;5031999;28;20485;-72
2023/05/30 10:48:47;;;;;;;10.85;5.00;;;22.30;40.80;;;;;;5033122;28;20041;-73
2023/05/30 10:51:13;;;;;;;12.93;4.47;;;22.20;40.40;;;;;;5033506;28;20065;-72
2023/05/30 10:53:44;;;;;;;8.00;4.97;;;22.40;41.40;;;;;;5033334;28;20021;-72
2023/05/30 10:56:39;;;;;;;10.43;4.75;;;22.50;39.40;;;;;;5033160;28;20051;-72
2023/05/30 10:59:13;;;;;;;11.13;4.47;;;22.60;39.40;;;;;;5032362;28;20037;-72
2023/05/30 11:01:38;;;;;;;7.57;4.25;;;22.60;39.40;;;;;;5033140;28;20384;-72
2023/05/30 11:04:12;;;;;;;7.78;4.90;;;22.70;39.90;;;;;;5033265;28;20025;-72
2023/05/30 11:06:45;;;;;;;10.07;4.70;;;22.60;39.30;;;;;;5033057;28;20026;-72
2023/05/30 11:09:16;;;;;;;6.00;3.75;;;22.80;39.70;;;;;;5031635;28;20508;-72
2023/05/30 11:11:54;;;;;;;7.97;4.07;;;23.20;40.70;;;;;;5032403;28;20086;-72
2023/05/30 11:14:28;;;;;;;8.32;4.40;;;23.40;38.10;;;;;;5032465;28;20028;-73
2023/05/30 11:17:02;;;;;;;11.00;4.40;;;23.80;38.10;;;;;;5033030;28;20401;-72
2023/05/30 11:19:49;;;;;;;10.38;4.95;;;24.00;37.20;;;;;;5033376;28;20052;-72
2023/05/30 11:22:16;;;;;;;7.93;4.32;;;23.90;35.70;;;;;;5032956;28;20330;-71
2023/05/30 11:24:43;;;;;;;8.60;4.15;;;23.60;36.50;;;;;;5032809;28;20342;-72
2023/05/30 11:27:14;;;;;;;8.45;4.07;;;23.60;36.60;;;;;;5032955;28;20108;-73
2023/05/30 11:29:47;;;;;;;7.10;3.40;;;23.90;36.40;;;;;;5033139;28;20045;-71
2023/05/30 11:32:16;;;;;;;10.60;3.70;;;24.20;35.30;;;;;;5033065;28;20437;-71
2023/05/30 11:34:42;;;;;;;7.55;3.58;;;24.50;36.20;;;;;;5032747;28;20022;-71
2023/05/30 11:37:08;;;;;;;10.77;3.92;;;24.80;34.20;;;;;;5032491;28;20037;-72
2023/05/30 11:39:36;;;;;;;8.25;4.30;;;24.40;34.10;;;;;;5032685;28;20032;-71
2023/05/30 11:42:05;;;;;;;8.05;4.25;;;24.30;34.10;;;;;;5032621;28;20059;-72
2023/05/30 11:44:31;;;;;;;7.50;4.35;;;24.40;34.80;;;;;;5032536;28;20032;-71
2023/05/30 11:47:03;;;;;;;6.38;3.70;;;24.60;33.70;;;;;;5032634;28;20029;-72
2023/05/30 11:49:29;;;;;;;6.30;3.60;;;24.90;34.50;;;;;;5032361;28;20045;-71
2023/05/30 11:51:54;;;;;;;5.82;3.75;;;24.80;33.30;;;;;;5032425;28;20033;-71
2023/05/30 11:54:20;;;;;;;7.72;3.72;;;24.90;32.70;;;;;;5031107;28;20025;-72
2023/05/30 11:56:47;;;;;;;9.60;3.80;;;24.70;32.80;;;;;;5032415;28;20029;-71
2023/05/30 11:59:19;;;;;;;8.65;3.78;;;24.80;32.70;;;;;;5032559;28;20164;-72
2023/05/30 12:01:56;;;;;;;7.57;4.07;;;24.60;32.80;;;;;;5032581;28;20017;-72
2023/05/30 12:04:23;;;;;;;8.23;3.63;;;24.60;32.60;;;;;;5031209;28;20029;-72
2023/05/30 12:06:49;;;;;;;4.75;3.22;;;24.30;33.00;;;;;;5032524;28;20032;-73
2023/05/30 12:09:15;;;;;;;9.35;3.70;;;24.50;33.10;;;;;;5032420;28;20485;-72
2023/05/30 12:11:51;;;;;;;6.47;3.90;;;24.80;32.90;;;;;;5031929;28;20029;-71
2023/05/30 12:14:17;;;;;;;8.48;4.05;;;25.00;31.80;;;;;;5032124;28;20041;-72
2023/05/30 12:16:42;;;;;;;7.03;3.63;;;24.90;31.70;;;;;;5030500;28;20125;-72
2023/05/30 12:19:10;;;;;;;5.68;3.92;;;24.70;32.40;;;;;;5031988;28;20029;-72
2023/05/30 12:21:36;;;;;;;6.65;3.40;;;24.90;32.40;;;;;;5032165;28;20096;-71
2023/05/30 12:24:11;;;;;;;8.82;3.95;;;24.80;31.80;;;;;;5032092;28;20508;-71
2023/05/30 12:26:36;;;;;;;6.43;3.60;;;24.90;32.30;;;;;;5036023;28;20025;-72
2023/05/30 12:29:08;;;;;;;6.00;3.65;;;25.00;31.80;;;;;;5035939;28;20029;-72
2023/05/30 12:31:34;;;;;;;5.07;3.88;;;25.30;31.70;;;;;;5035566;28;20018;-73
2023/05/30 12:34:01;;;;;;;9.57;3.88;;;25.50;32.00;;;;;;5035766;28;20087;-72
2023/05/30 12:36:26;;;;;;;7.57;3.80;;;25.60;30.60;;;;;;5035460;28;20018;-73
2023/05/30 12:38:56;;;;;;;7.57;3.55;;;25.50;30.80;;;;;;5035759;28;20041;-74
2023/05/30 12:41:29;;;;;;;8.23;3.45;;;25.90;31.00;;;;;;5035851;28;20021;-75
2023/05/30 12:43:56;;;;;;;7.53;3.95;;;25.80;29.70;;;;;;5035718;28;20040;-73
2023/05/30 12:46:21;;;;;;;10.93;3.88;;;25.50;31.20;;;;;;5035546;28;20028;-74